Time;durP1;ratioP1;P1;durP2;ratioP2;P2;SDS_P1;SDS_P2;PMS_P1;PMS_P2;Temp;Humidity;BMP_temperature;BMP_pressure;BME280_temperature;BME280_humidity;BME280_pressure;Samples;Min_cycle;Max_cycle;Signal;HPM_P1;HPM_P2
2021/01/14 00:02:20;;;;;;;5.07;4.17;;;;;;;3.46;61.05;100671.16;5097541;28;20204;-70
2021/01/14 00:04:45;;;;;;;5.10;4.37;;;;;;;3.30;61.04;100680.00;5097335;28;20172;-68
2021/01/14 00:07:10;;;;;;;5.77;4.20;;;;;;;3.48;62.84;100688.44;5096595;28;20165;-69
2021/01/14 00:09:36;;;;;;;8.47;4.27;;;;;;;3.10;61.90;100694.69;5117168;28;20179;-70
2021/01/14 00:12:01;;;;;;;7.60;4.50;;;;;;;3.28;62.80;100687.66;5117392;28;20606;-68
2021/01/14 00:14:26;;;;;;;6.47;3.87;;;;;;;3.05;63.49;100696.22;5117941;28;20225;-69
2021/01/14 00:16:52;;;;;;;5.20;4.70;;;;;;;3.34;61.83;100700.81;5117741;28;20179;-69
2021/01/14 00:19:17;;;;;;;4.90;4.40;;;;;;;3.01;62.25;100706.38;5117374;28;20440;-70
2021/01/14 00:21:43;;;;;;;5.00;3.80;;;;;;;3.22;62.40;100690.03;5117210;28;20175;-70
2021/01/14 00:24:09;;;;;;;6.13;3.80;;;;;;;3.28;62.52;100713.44;5117898;28;20290;-68
2021/01/14 00:26:34;;;;;;;5.93;4.17;;;;;;;3.18;63.62;100707.06;5116752;28;20449;-71
2021/01/14 00:29:00;;;;;;;6.03;4.03;;;;;;;3.41;64.86;100709.66;5116538;28;20244;-70
2021/01/14 00:31:25;;;;;;;4.37;3.97;;;;;;;2.83;65.20;100713.38;5117952;28;20227;-71
2021/01/14 00:33:51;;;;;;;7.57;4.10;;;;;;;2.27;66.60;100739.34;5117752;28;20472;-72
2021/01/14 00:36:30;;;;;;;6.90;4.30;;;;;;;2.75;65.35;100733.66;5117855;28;20261;-70
2021/01/14 00:38:55;;;;;;;10.20;4.93;;;;;;;3.13;66.39;100736.03;5117037;28;20437;-70
2021/01/14 00:41:21;;;;;;;6.93;4.50;;;;;;;2.49;68.12;100763.44;5117411;28;20429;-67
2021/01/14 00:43:46;;;;;;;8.40;4.57;;;;;;;2.50;70.59;100750.66;5117632;28;20530;-71
2021/01/14 00:46:17;;;;;;;6.27;4.97;;;;;;;2.72;70.93;100756.72;5117534;28;20179;-69
2021/01/14 00:48:42;;;;;;;11.63;5.70;;;;;;;2.61;70.58;100765.66;5117893;28;20488;-70
2021/01/14 00:51:07;;;;;;;5.83;5.00;;;;;;;2.78;69.78;100768.94;5117339;28;20421;-69
2021/01/14 00:53:33;;;;;;;8.23;4.90;;;;;;;3.05;68.31;100782.06;5117351;28;20223;-71
2021/01/14 00:55:58;;;;;;;6.33;4.97;;;;;;;2.36;70.23;100786.06;5117813;28;20558;-71
2021/01/14 00:58:23;;;;;;;6.83;5.20;;;;;;;2.65;70.81;100796.75;5117432;28;20176;-71
2021/01/14 01:00:49;;;;;;;6.80;5.30;;;;;;;2.75;69.17;100798.00;5117350;28;20183;-70
2021/01/14 01:03:14;;;;;;;8.67;5.80;;;;;;;2.20;70.88;100814.50;5117734;28;20302;-70
2021/01/14 01:05:39;;;;;;;7.47;5.27;;;;;;;3.06;69.11;100803.53;5117377;28;20254;-70
2021/01/14 01:08:04;;;;;;;8.23;5.53;;;;;;;2.60;70.34;100811.13;5117255;28;20180;-69
2021/01/14 01:10:30;;;;;;;8.80;5.20;;;;;;;3.21;69.24;100817.06;5117572;28;20175;-68
2021/01/14 01:12:57;;;;;;;7.00;5.20;;;;;;;2.31;71.96;100830.41;5117193;28;20184;-70
2021/01/14 01:15:22;;;;;;;7.87;5.33;;;;;;;3.22;69.72;100826.56;5117121;28;20182;-71
2021/01/14 01:17:48;;;;;;;5.93;4.97;;;;;;;2.57;70.93;100834.16;5120119;28;20401;-69
2021/01/14 01:20:13;;;;;;;7.57;5.60;;;;;;;2.31;73.50;100841.59;5120812;28;20225;-69
2021/01/14 01:22:39;;;;;;;8.60;6.73;;;;;;;2.64;72.38;100849.03;5119528;28;20189;-70
2021/01/14 01:25:05;;;;;;;6.83;5.50;;;;;;;2.70;71.83;100844.13;5120850;28;20241;-71
2021/01/14 01:27:30;;;;;;;6.73;5.90;;;;;;;2.39;73.06;100862.50;5120746;28;20183;-71
2021/01/14 01:29:55;;;;;;;7.90;6.20;;;;;;;2.36;73.84;100859.81;5121147;28;20571;-70
2021/01/14 01:32:20;;;;;;;13.23;6.30;;;;;;;2.47;74.01;100875.72;5119364;28;20187;-70
2021/01/14 01:34:46;;;;;;;10.33;6.20;;;;;;;2.82;72.96;100863.53;5120388;28;20284;-68
2021/01/14 01:37:11;;;;;;;9.03;6.87;;;;;;;2.13;76.12;100869.94;5120479;28;20179;-70
2021/01/14 01:39:36;;;;;;;8.83;6.50;;;;;;;2.76;73.15;100883.84;5119087;28;20521;-71
2021/01/14 01:42:02;;;;;;;8.13;6.43;;;;;;;2.84;72.51;100887.63;5120615;28;20183;-71
2021/01/14 01:44:28;;;;;;;10.47;6.73;;;;;;;2.38;74.92;100894.19;5121073;28;20259;-73
2021/01/14 01:46:55;;;;;;;10.80;6.80;;;;;;;2.40;75.07;100902.00;5119701;28;20444;-72
2021/01/14 01:49:20;;;;;;;7.47;6.47;;;;;;;2.43;74.76;100909.84;5120309;28;20695;-75
2021/01/14 01:51:46;;;;;;;8.57;6.73;;;;;;;2.69;73.73;100911.91;5120016;28;20455;-75
2021/01/14 01:54:11;;;;;;;7.40;6.10;;;;;;;2.48;74.02;100922.09;5119820;28;20254;-73
2021/01/14 01:56:37;;;;;;;8.03;6.90;;;;;;;2.88;73.82;100920.41;5120482;28;20179;-72
2021/01/14 01:59:04;;;;;;;8.17;7.03;;;;;;;2.31;76.24;100925.59;5119967;28;20552;-75
2021/01/14 02:01:29;;;;;;;7.37;6.27;;;;;;;2.54;75.24;100939.50;5120115;28;20598;-72
2021/01/14 02:03:54;;;;;;;6.83;6.10;;;;;;;2.40;74.84;100948.31;5120113;28;20421;-74
2021/01/14 02:06:20;;;;;;;10.00;6.60;;;;;;;3.28;73.30;100945.31;5120001;28;20201;-73
2021/01/14 02:08:54;;;;;;;7.10;6.13;;;;;;;2.60;73.91;100959.50;5120553;28;20175;-71
2021/01/14 02:11:30;;;;;;;7.77;5.80;;;;;;;2.43;74.87;100964.75;5119286;28;20420;-74
2021/01/14 02:14:06;;;;;;;6.60;6.00;;;;;;;2.68;73.80;100971.03;5119201;28;20460;-68
2021/01/14 02:16:32;;;;;;;8.00;5.73;;;;;;;2.95;73.73;100976.53;5119279;28;20847;-70
2021/01/14 02:18:59;;;;;;;6.27;5.67;;;;;;;2.81;74.00;100975.03;5119244;28;20406;-71
2021/01/14 02:21:25;;;;;;;7.10;5.80;;;;;;;2.88;73.74;100981.34;5118946;28;20480;-71
2021/01/14 02:24:03;;;;;;;5.67;5.17;;;;;;;2.82;73.83;100990.56;5119212;28;20500;-69
2021/01/14 02:26:29;;;;;;;11.83;6.73;;;;;;;2.65;74.78;100997.53;5119041;28;20503;-71
2021/01/14 02:28:55;;;;;;;6.50;5.07;;;;;;;2.19;76.51;100997.91;5117797;28;20461;-71
2021/01/14 02:31:22;;;;;;;6.50;5.70;;;;;;;2.39;75.74;100998.88;5119446;28;20424;-72
2021/01/14 02:33:49;;;;;;;8.50;6.30;;;;;;;3.17;73.72;101005.81;5119552;28;20539;-73
2021/01/14 02:36:14;;;;;;;9.37;7.50;;;;;;;3.10;74.33;101014.06;5119744;28;20441;-74
2021/01/14 02:38:39;;;;;;;8.33;5.27;;;;;;;2.81;74.34;101014.53;5119487;27;20418;-73
2021/01/14 02:41:05;;;;;;;8.40;6.50;;;;;;;3.02;73.63;101021.47;5118561;28;20171;-72
2021/01/14 02:43:30;;;;;;;5.53;4.87;;;;;;;2.80;74.72;101035.06;5119716;28;20216;-71
2021/01/14 02:45:56;;;;;;;6.50;5.30;;;;;;;2.48;74.52;101026.75;5119302;28;20254;-71
2021/01/14 02:48:30;;;;;;;6.40;5.33;;;;;;;2.89;73.86;101040.63;5119186;28;20189;-70
2021/01/14 02:50:57;;;;;;;5.93;4.90;;;;;;;3.23;72.79;101041.28;5118808;28;20413;-70
2021/01/14 02:53:24;;;;;;;5.30;4.80;;;;;;;2.94;73.35;101049.47;5118449;28;20461;-71
2021/01/14 02:55:50;;;;;;;6.53;4.87;;;;;;;2.78;74.19;101062.44;5119052;28;20516;-71
2021/01/14 02:58:15;;;;;;;7.20;5.37;;;;;;;2.65;74.67;101072.19;5118659;28;20426;-73
2021/01/14 03:00:40;;;;;;;6.97;5.40;;;;;;;2.94;74.06;101075.22;5119035;28;20416;-73
2021/01/14 03:03:06;;;;;;;6.23;5.63;;;;;;;2.79;74.11;101075.38;5119076;27;20171;-72
2021/01/14 03:05:31;;;;;;;5.40;4.90;;;;;;;2.70;73.84;101086.13;5119353;28;20183;-76
2021/01/14 03:07:57;;;;;;;6.10;5.43;;;;;;;2.99;73.70;101088.28;5119257;28;20179;-80
2021/01/14 03:10:22;;;;;;;6.00;5.40;;;;;;;3.19;73.30;101089.19;5118670;28;20168;-70
2021/01/14 03:12:47;;;;;;;6.20;5.60;;;;;;;2.80;74.56;101083.97;5118453;28;20521;-68
2021/01/14 03:15:13;;;;;;;6.90;5.03;;;;;;;2.94;73.70;101095.81;5118406;28;20209;-71
2021/01/14 03:17:38;;;;;;;6.93;4.97;;;;;;;3.43;71.69;101091.13;5118682;28;20211;-70
2021/01/14 03:20:05;;;;;;;7.50;5.87;;;;;;;3.01;73.79;101099.56;5117584;28;20444;-69
2021/01/14 03:22:30;;;;;;;6.83;6.20;;;;;;;3.00;73.19;101106.41;5118516;28;20564;-70
2021/01/14 03:24:55;;;;;;;6.27;5.67;;;;;;;3.10;72.88;101109.38;5118508;28;20469;-73
2021/01/14 03:27:20;;;;;;;6.50;5.77;;;;;;;3.33;72.75;101110.47;5118711;28;20199;-70
2021/01/14 03:29:46;;;;;;;6.93;5.43;;;;;;;5.66;67.66;101104.28;5118169;28;20187;-71
2021/01/14 03:32:11;;;;;;;6.30;5.70;;;;;;;3.55;72.10;101130.31;5117803;28;20176;-72
2021/01/14 03:34:37;;;;;;;7.77;5.00;;;;;;;4.01;70.10;101123.72;5118947;28;20215;-72
2021/01/14 03:37:02;;;;;;;6.90;5.50;;;;;;;3.21;71.87;101133.97;5118554;28;20195;-72
2021/01/14 03:39:28;;;;;;;7.80;5.80;;;;;;;3.16;72.25;101138.88;5117408;28;20434;-72
2021/01/14 03:41:54;;;;;;;9.77;6.47;;;;;;;3.35;71.48;101139.75;5119314;28;20171;-73
2021/01/14 03:44:20;;;;;;;7.10;6.00;;;;;;;3.26;72.41;101140.22;5118720;28;20424;-73
2021/01/14 03:46:46;;;;;;;7.40;6.20;;;;;;;3.57;71.29;101136.41;5118620;27;20413;-72
2021/01/14 03:49:12;;;;;;;7.30;5.60;;;;;;;3.18;72.36;101149.25;5119109;28;20159;-72
2021/01/14 03:51:38;;;;;;;8.90;6.87;;;;;;;2.98;73.28;101161.25;5118356;28;20424;-73
2021/01/14 03:54:03;;;;;;;7.97;6.20;;;;;;;3.50;72.48;101157.59;5117735;28;20456;-73
2021/01/14 03:56:28;;;;;;;7.33;6.43;;;;;;;3.86;70.40;101160.06;5118652;28;20167;-73
2021/01/14 03:58:53;;;;;;;6.90;6.13;;;;;;;4.17;69.75;101166.53;5118556;28;20174;-72
2021/01/14 04:01:22;;;;;;;10.10;7.10;;;;;;;3.97;69.01;101170.84;5118424;28;20179;-72
2021/01/14 04:03:47;;;;;;;7.97;7.03;;;;;;;4.06;68.91;101166.06;5118771;28;20167;-72
2021/01/14 04:06:12;;;;;;;6.93;6.17;;;;;;;3.57;70.63;101172.50;5118673;28;20417;-71
2021/01/14 04:08:39;;;;;;;8.37;7.57;;;;;;;3.95;70.42;101183.66;5118452;28;20172;-73
2021/01/14 04:11:04;;;;;;;7.97;6.83;;;;;;;4.31;67.87;101188.63;5118570;28;20167;-73
2021/01/14 04:13:30;;;;;;;9.70;7.87;;;;;;;4.43;68.33;101182.22;5118011;28;20766;-72
2021/01/14 04:15:56;;;;;;;7.67;6.77;;;;;;;3.73;70.00;101191.25;5117696;28;20443;-72
2021/01/14 04:18:21;;;;;;;11.70;6.70;;;;;;;4.29;68.38;101186.78;5118245;28;20478;-72
2021/01/14 04:20:46;;;;;;;8.27;6.60;;;;;;;4.22;69.10;101196.88;5117765;28;20276;-72
2021/01/14 04:23:12;;;;;;;8.53;6.90;;;;;;;3.83;69.96;101194.31;5117887;28;20163;-73
2021/01/14 04:25:37;;;;;;;9.30;6.43;;;;;;;3.45;70.63;101206.38;5118127;28;20219;-73
2021/01/14 04:28:04;;;;;;;7.23;6.50;;;;;;;3.37;71.56;101211.16;5117852;28;20167;-72
2021/01/14 04:30:34;;;;;;;8.47;7.00;;;;;;;3.90;69.29;101205.78;5110388;28;20188;-72
2021/01/14 04:33:11;;;;;;;9.40;7.23;;;;;;;3.30;71.57;101222.00;5106240;28;20416;-72
2021/01/14 04:35:57;;;;;;;9.87;7.33;;;;;;;3.48;72.28;101218.53;5106487;28;20439;-72
2021/01/14 04:38:24;;;;;;;9.90;7.37;;;;;;;3.28;72.73;101222.75;5096639;28;20415;-73
2021/01/14 04:41:00;;;;;;;9.03;8.10;;;;;;;3.47;71.41;101215.03;5097295;28;20815;-72
2021/01/14 04:43:27;;;;;;;8.70;7.13;;;;;;;3.60;72.06;101229.38;5097529;28;20414;-73
2021/01/14 04:46:04;;;;;;;9.73;7.80;;;;;;;3.57;71.06;101230.94;5097472;28;20428;-73
2021/01/14 04:48:30;;;;;;;10.00;7.13;;;;;;;3.80;70.21;101232.88;5096946;28;20559;-73
2021/01/14 04:51:03;;;;;;;10.53;8.13;;;;;;;3.81;69.22;101229.47;5096508;28;20438;-71
2021/01/14 04:53:29;;;;;;;9.47;7.83;;;;;;;3.75;70.13;101244.69;5101420;28;20446;-72
2021/01/14 04:55:59;;;;;;;10.27;8.23;;;;;;;3.81;71.76;101244.06;5084330;28;20430;-73
2021/01/14 04:58:27;;;;;;;12.90;7.93;;;;;;;3.19;71.52;101252.41;5101686;28;20552;-73
2021/01/14 05:00:52;;;;;;;11.67;8.00;;;;;;;3.19;72.58;101255.00;5101072;28;20424;-73
2021/01/14 05:03:26;;;;;;;9.40;7.73;;;;;;;3.12;73.12;101259.78;5101570;28;20399;-73
2021/01/14 05:05:52;;;;;;;11.20;8.43;;;;;;;3.07;72.83;101266.38;5100502;28;20179;-73
2021/01/14 05:08:25;;;;;;;14.53;8.90;;;;;;;3.28;72.56;101263.97;5101261;28;20405;-73
2021/01/14 05:10:51;;;;;;;9.57;7.80;;;;;;;3.64;71.47;101274.22;5101027;28;20164;-73
2021/01/14 05:13:16;;;;;;;11.93;7.73;;;;;;;3.32;71.40;101279.63;5101093;28;20450;-73
2021/01/14 05:15:42;;;;;;;9.17;7.20;;;;;;;3.16;72.03;101287.44;5100603;28;20517;-72
2021/01/14 05:18:07;;;;;;;12.37;8.17;;;;;;;3.09;74.03;101291.41;5101137;28;20518;-72
2021/01/14 05:20:33;;;;;;;10.20;8.13;;;;;;;3.62;71.17;101297.34;5100800;28;20444;-73
2021/01/14 05:23:05;;;;;;;12.50;9.27;;;;;;;4.16;69.10;101293.78;5100979;28;20172;-72
2021/01/14 05:25:31;;;;;;;12.90;8.40;;;;;;;3.85;69.94;101292.41;5101031;28;20239;-73
2021/01/14 05:28:14;;;;;;;11.10;8.10;;;;;;;3.89;70.31;101299.47;5100777;28;20418;-73
2021/01/14 05:30:40;;;;;;;11.83;7.50;;;;;;;3.64;70.55;101300.00;5100615;28;20807;-71
2021/01/14 05:33:15;;;;;;;15.03;8.77;;;;;;;3.48;71.16;101303.59;5100553;28;20445;-73
2021/01/14 05:35:48;;;;;;;12.47;7.93;;;;;;;3.47;71.12;101307.84;5100056;28;20822;-72
2021/01/14 05:38:27;;;;;;;10.13;8.13;;;;;;;3.95;69.11;101314.31;5100570;28;20406;-73
2021/01/14 05:43:59;;;;;;;16.77;8.57;;;;;;;3.66;69.25;101316.44;5099058;28;20822;-73
2021/01/14 05:46:29;;;;;;;12.20;8.50;;;;;;;3.58;70.06;101315.22;5081892;28;20443;-73
2021/01/14 05:48:56;;;;;;;12.73;8.50;;;;;;;3.64;71.03;101318.06;5099864;28;20410;-73
2021/01/14 05:51:26;;;;;;;11.63;8.53;;;;;;;3.29;70.79;101325.88;5099960;28;20709;-73
2021/01/14 05:53:55;;;;;;;11.10;8.73;;;;;;;3.93;68.91;101316.84;5100307;28;20719;-74
2021/01/14 05:56:24;;;;;;;10.63;7.50;;;;;;;4.09;68.41;101335.63;5100184;28;20406;-73
2021/01/14 05:58:52;;;;;;;10.67;8.30;;;;;;;4.36;67.82;101336.84;5099558;28;20411;-72
2021/01/14 06:01:18;;;;;;;10.47;8.10;;;;;;;4.41;67.08;101342.22;5099346;28;20823;-73
2021/01/14 06:03:43;;;;;;;15.13;8.53;;;;;;;3.70;68.82;101345.00;5100151;28;20441;-73
2021/01/14 06:06:14;;;;;;;10.93;8.23;;;;;;;3.56;69.60;101350.31;5099911;28;20222;-72
2021/01/14 06:08:40;;;;;;;13.63;9.10;;;;;;;3.83;69.76;101359.38;5099837;28;20187;-72
2021/01/14 06:11:17;;;;;;;9.90;8.60;;;;;;;3.58;69.93;101366.78;5100312;28;20406;-73
2021/01/14 06:13:42;;;;;;;12.07;8.10;;;;;;;3.53;69.58;101366.53;5099986;28;20207;-72
2021/01/14 06:16:08;;;;;;;14.13;8.97;;;;;;;3.36;71.79;101363.16;5100079;28;20467;-72
2021/01/14 06:18:33;;;;;;;11.37;8.60;;;;;;;3.82;69.83;101370.50;5099358;28;20164;-73
2021/01/14 06:20:58;;;;;;;11.03;8.40;;;;;;;4.26;67.61;101372.50;5099782;28;20168;-73
2021/01/14 06:23:24;;;;;;;11.40;9.40;;;;;;;3.99;69.00;101384.22;5099763;28;20210;-73
2021/01/14 06:25:51;;;;;;;11.93;8.60;;;;;;;3.62;69.56;101384.16;5099707;28;20233;-73
2021/01/14 06:28:21;;;;;;;15.77;9.50;;;;;;;4.04;68.93;101387.00;5099394;28;20267;-74
2021/01/14 06:30:57;;;;;;;11.33;8.83;;;;;;;4.12;68.20;101387.34;5099040;28;20738;-73
2021/01/14 06:33:24;;;;;;;13.30;9.70;;;;;;;3.93;68.44;101401.97;5098361;28;20488;-73
2021/01/14 06:35:52;;;;;;;13.37;10.03;;;;;;;3.91;68.79;101395.88;5099445;28;20413;-73
2021/01/14 06:38:19;;;;;;;13.43;9.33;;;;;;;3.67;69.74;101400.72;5098597;28;20410;-72
2021/01/14 06:40:48;;;;;;;11.20;8.60;;;;;;;3.60;69.10;101399.56;5098762;28;20448;-73
2021/01/14 06:43:16;;;;;;;14.03;9.70;;;;;;;3.61;69.41;101403.88;5098582;28;20651;-72
2021/01/14 06:45:51;;;;;;;14.77;9.00;;;;;;;3.74;68.85;101412.22;5099119;28;20422;-73
2021/01/14 06:48:22;;;;;;;12.50;8.87;;;;;;;3.69;68.63;101410.31;5098432;28;20409;-74
2021/01/14 06:50:49;;;;;;;12.53;9.27;;;;;;;3.85;67.92;101405.88;5098092;28;20449;-74
2021/01/14 06:53:16;;;;;;;14.80;10.70;;;;;;;3.66;69.34;101419.59;5098965;28;20461;-75
2021/01/14 06:55:41;;;;;;;13.07;9.30;;;;;;;3.39;69.00;101421.69;5099079;28;20415;-75
2021/01/14 06:58:16;;;;;;;17.43;9.20;;;;;;;3.90;68.66;101432.78;5099463;28;20827;-75
2021/01/14 07:00:48;;;;;;;11.97;9.00;;;;;;;3.76;68.80;101433.81;5098665;28;20463;-74
2021/01/14 07:03:13;;;;;;;12.50;9.73;;;;;;;3.81;68.89;101432.34;5099036;28;20824;-75
2021/01/14 07:05:44;;;;;;;13.67;9.13;;;;;;;3.89;67.90;101436.16;5098933;28;20418;-75
2021/01/14 07:08:29;;;;;;;13.40;9.30;;;;;;;4.37;66.41;101446.13;5099543;28;20200;-74
2021/01/14 07:11:01;;;;;;;12.40;9.30;;;;;;;4.07;67.33;101448.19;5099628;28;20418;-74
2021/01/14 07:13:33;;;;;;;13.97;8.50;;;;;;;4.44;66.65;101447.31;5099526;28;20484;-74
2021/01/14 07:15:59;;;;;;;10.23;8.37;;;;;;;3.99;66.86;101456.44;5098712;28;20505;-75
2021/01/14 07:18:29;;;;;;;12.73;9.40;;;;;;;4.53;65.66;101460.63;5099069;28;20489;-73
2021/01/14 07:21:27;;;;;;;12.53;9.77;;;;;;;4.02;67.25;101460.88;5098802;28;20739;-73
2021/01/14 07:23:56;;;;;;;18.43;11.83;;;;;;;4.23;68.15;101471.31;5071910;28;20553;-74
2021/01/14 07:26:22;;;;;;;10.37;8.20;;;;;;;4.24;67.31;101472.22;5098401;28;20437;-74
2021/01/14 07:28:49;;;;;;;12.60;8.77;;;;;;;4.14;66.39;101481.19;5099988;28;20406;-75
2021/01/14 07:31:18;;;;;;;11.17;8.17;;;;;;;4.33;66.00;101489.00;5100376;28;20398;-73
2021/01/14 07:33:43;;;;;;;14.63;8.33;;;;;;;3.91;66.59;101488.72;5100785;28;20500;-74
2021/01/14 07:36:22;;;;;;;11.47;8.60;;;;;;;3.99;66.86;101491.66;5101499;28;20473;-73
2021/01/14 07:38:49;;;;;;;13.23;11.83;;;;;;;4.00;67.00;101494.31;5100355;28;20172;-75
2021/01/14 07:41:14;;;;;;;10.83;8.17;;;;;;;4.07;67.61;101502.38;5099843;28;20682;-74
2021/01/14 07:43:41;;;;;;;10.53;8.37;;;;;;;4.21;66.27;101502.22;5099260;28;20409;-74
2021/01/14 07:46:17;;;;;;;8.30;7.20;;;;;;;3.98;67.37;101513.13;5098981;28;20190;-75
2021/01/14 07:48:42;;;;;;;11.20;8.20;;;;;;;4.19;66.28;101510.69;5099819;28;20418;-74
2021/01/14 07:51:08;;;;;;;11.97;8.00;;;;;;;4.23;66.40;101512.59;5098721;28;20695;-75
2021/01/14 07:53:33;;;;;;;10.33;8.43;;;;;;;4.20;66.24;101522.78;5103751;28;20291;-73
2021/01/14 07:56:22;;;;;;;11.63;10.17;;;;;;;4.37;65.85;101516.75;5106419;28;20190;-72
2021/01/14 07:58:48;;;;;;;11.23;8.60;;;;;;;4.85;64.93;101524.09;5105509;28;20239;-73
2021/01/14 08:01:14;;;;;;;8.77;7.87;;;;;;;4.54;66.59;101525.25;5101178;28;20432;-73
2021/01/14 08:03:40;;;;;;;11.63;8.90;;;;;;;4.29;67.01;101530.97;5098664;28;20489;-73
2021/01/14 08:06:34;;;;;;;11.03;8.33;;;;;;;4.27;66.69;101539.47;5098115;28;20172;-74
2021/01/14 08:09:01;;;;;;;14.63;8.90;;;;;;;4.34;65.76;101534.69;5098079;28;20406;-74
2021/01/14 08:11:31;;;;;;;9.90;8.27;;;;;;;4.50;65.46;101540.56;5097015;28;20671;-76
2021/01/14 08:14:06;;;;;;;13.27;8.80;;;;;;;4.31;65.15;101546.53;5097621;28;20467;-74
2021/01/14 08:16:48;;;;;;;17.90;9.07;;;;;;;4.23;65.84;101553.91;5097849;28;20418;-75
2021/01/14 08:19:17;;;;;;;18.00;9.93;;;;;;;4.19;66.90;101557.16;5097966;28;20835;-74
2021/01/14 08:21:44;;;;;;;9.80;8.60;;;;;;;4.28;66.29;101555.00;5097893;28;20417;-73
2021/01/14 08:24:11;;;;;;;15.10;9.47;;;;;;;4.66;65.26;101550.78;5097734;28;20473;-74
2021/01/14 08:26:55;;;;;;;12.97;9.50;;;;;;;4.79;64.28;101562.59;5100772;28;20417;-74
2021/01/14 08:29:54;;;;;;;12.00;8.83;;;;;;;4.45;65.21;101570.44;5101334;28;20414;-74
2021/01/14 08:32:31;;;;;;;14.60;9.30;;;;;;;4.23;65.37;101574.56;5096149;28;20422;-72
2021/01/14 08:34:57;;;;;;;13.30;9.07;;;;;;;4.66;66.09;101566.28;5101792;28;20457;-74
2021/01/14 08:37:28;;;;;;;13.87;8.90;;;;;;;4.02;66.48;101564.94;5101495;28;20414;-72
2021/01/14 08:39:57;;;;;;;10.60;8.83;;;;;;;4.48;66.51;101580.88;5101451;28;20425;-72
2021/01/14 08:42:30;;;;;;;11.97;9.20;;;;;;;4.75;64.28;101577.84;5101517;28;20420;-73
2021/01/14 08:44:59;;;;;;;11.13;8.90;;;;;;;4.54;65.70;101588.94;5101659;28;20681;-72
2021/01/14 08:47:54;;;;;;;14.13;10.60;;;;;;;4.87;65.08;101593.94;5100626;28;20414;-72
2021/01/14 08:50:37;;;;;;;11.30;8.83;;;;;;;4.66;65.50;101604.16;5101155;28;20466;-72
2021/01/14 08:53:04;;;;;;;13.90;10.50;;;;;;;4.76;64.96;101605.47;5101164;28;20863;-72
2021/01/14 08:55:29;;;;;;;11.87;8.80;;;;;;;4.88;63.73;101609.53;5101344;28;20827;-72
2021/01/14 08:57:56;;;;;;;11.17;8.80;;;;;;;4.84;64.16;101606.72;5101355;28;20417;-73
2021/01/14 09:00:22;;;;;;;17.13;8.20;;;;;;;4.70;64.51;101609.53;5101734;28;20228;-73
2021/01/14 09:02:48;;;;;;;13.53;9.23;;;;;;;4.88;63.23;101612.09;5101585;28;20808;-72
2021/01/14 09:05:13;;;;;;;11.03;8.10;;;;;;;4.70;64.21;101619.84;5101378;28;20425;-74
2021/01/14 09:07:39;;;;;;;9.70;8.03;;;;;;;4.65;64.55;101623.91;5101691;28;20175;-73
2021/01/14 09:10:06;;;;;;;10.70;8.30;;;;;;;4.54;64.96;101622.50;5101241;28;20175;-72
2021/01/14 09:12:31;;;;;;;12.40;9.80;;;;;;;4.50;65.52;101625.75;5101068;28;20471;-74
2021/01/14 09:14:56;;;;;;;14.20;10.27;;;;;;;4.82;64.46;101623.84;5101181;28;20442;-73
2021/01/14 09:17:22;;;;;;;15.17;12.40;;;;;;;4.60;65.68;101627.09;5100941;28;20290;-72
2021/01/14 09:19:54;;;;;;;13.70;10.57;;;;;;;4.31;64.94;101632.59;5100834;28;20164;-73
2021/01/14 09:22:28;;;;;;;12.77;9.77;;;;;;;4.26;65.66;101631.47;5101321;28;20168;-73
2021/01/14 09:24:54;;;;;;;9.87;8.50;;;;;;;4.24;65.57;101634.81;5100514;28;20935;-73
2021/01/14 09:27:24;;;;;;;11.40;8.30;;;;;;;4.44;64.44;101652.19;5100737;28;20450;-73
2021/01/14 09:29:50;;;;;;;12.60;8.00;;;;;;;4.48;65.05;101642.84;5099903;28;20177;-73
2021/01/14 09:32:15;;;;;;;10.17;8.23;;;;;;;4.42;64.78;101648.63;5100573;28;20406;-72
2021/01/14 09:34:40;;;;;;;13.13;9.30;;;;;;;3.98;66.39;101652.44;5100870;28;20192;-72
2021/01/14 09:37:19;;;;;;;15.93;10.93;;;;;;;4.47;65.01;101646.28;5099982;28;20177;-72
2021/01/14 09:39:47;;;;;;;12.53;9.70;;;;;;;4.11;66.16;101657.41;5100215;28;20545;-72
2021/01/14 09:42:17;;;;;;;12.00;8.83;;;;;;;4.13;66.68;101667.81;5100384;28;20406;-72
2021/01/14 09:44:42;;;;;;;10.00;7.97;;;;;;;4.45;65.59;101663.38;5100307;28;20811;-72
2021/01/14 09:47:08;;;;;;;12.93;9.57;;;;;;;4.84;63.89;101664.44;5101227;28;20413;-72
2021/01/14 09:49:33;;;;;;;11.47;8.27;;;;;;;4.81;63.89;101671.16;5099987;28;20245;-72
2021/01/14 09:51:59;;;;;;;12.27;8.87;;;;;;;4.58;64.38;101678.66;5101862;28;20471;-72
2021/01/14 09:54:25;;;;;;;11.80;9.33;;;;;;;4.51;64.85;101674.91;5101336;28;20217;-72
2021/01/14 09:56:53;;;;;;;15.10;9.70;;;;;;;4.72;65.25;101679.34;5100090;28;20172;-72
2021/01/14 09:59:37;;;;;;;10.93;9.37;;;;;;;4.55;65.40;101673.34;5100362;28;20420;-72
2021/01/14 10:02:16;;;;;;;8.13;7.27;;;;;;;4.31;65.00;101680.75;5100287;28;20491;-73
2021/01/14 10:04:51;;;;;;;11.73;8.13;;;;;;;4.50;64.81;101686.03;5099272;28;20415;-72
2021/01/14 10:07:21;;;;;;;12.87;8.80;;;;;;;4.36;65.62;101682.75;5099946;28;20463;-72
2021/01/14 10:09:49;;;;;;;12.80;9.07;;;;;;;4.28;65.99;101689.25;5100818;28;20437;-73
2021/01/14 10:12:14;;;;;;;14.03;8.90;;;;;;;4.08;66.39;101684.75;5100089;28;20414;-72
2021/01/14 10:14:41;;;;;;;14.60;8.90;;;;;;;4.00;67.69;101690.41;5099784;28;20454;-72
2021/01/14 10:17:14;;;;;;;9.40;8.40;;;;;;;3.82;67.79;101686.88;5104573;28;20533;-74
2021/01/14 10:19:46;;;;;;;9.43;8.00;;;;;;;4.11;67.25;101690.06;5120030;28;20420;-74
2021/01/14 10:22:11;;;;;;;10.57;7.90;;;;;;;4.19;66.29;101691.34;5120364;28;20868;-73
2021/01/14 10:24:36;;;;;;;10.17;7.40;;;;;;;4.06;65.57;101705.34;5120353;28;20523;-74
2021/01/14 10:27:15;;;;;;;10.83;8.30;;;;;;;3.60;67.75;101710.63;5120094;28;20203;-73
2021/01/14 10:29:41;;;;;;;11.80;7.63;;;;;;;4.12;66.59;101700.47;5120099;28;20167;-73
2021/01/14 10:32:12;;;;;;;13.17;9.47;;;;;;;4.47;65.74;101698.78;5119886;28;20410;-72
2021/01/14 10:34:41;;;;;;;13.03;8.87;;;;;;;4.82;63.93;101699.66;5119980;28;20461;-73
2021/01/14 10:37:16;;;;;;;10.00;8.30;;;;;;;4.76;64.29;101703.63;5119730;28;20685;-72
2021/01/14 10:39:41;;;;;;;10.60;8.57;;;;;;;4.43;64.11;101704.63;5118971;28;21266;-72
2021/01/14 10:42:36;;;;;;;10.40;8.20;;;;;;;4.71;64.12;101703.41;5119767;27;20512;-73
2021/01/14 10:45:09;;;;;;;15.30;9.80;;;;;;;4.23;65.61;101701.03;5120086;27;20434;-73
2021/01/14 10:47:43;;;;;;;11.23;8.40;;;;;;;3.84;66.53;101713.63;5120068;28;20406;-75
2021/01/14 10:50:26;;;;;;;12.20;8.10;;;;;;;3.99;66.63;101713.53;5118696;28;20432;-76
2021/01/14 10:52:59;;;;;;;12.73;9.50;;;;;;;4.42;66.11;101707.13;5119791;28;20429;-74
2021/01/14 10:55:25;;;;;;;14.80;9.33;;;;;;;4.27;66.63;101710.69;5119692;28;20460;-75
2021/01/14 10:57:53;;;;;;;9.43;7.80;;;;;;;3.96;67.04;101721.13;5120977;28;20428;-74
2021/01/14 11:00:22;;;;;;;11.83;9.43;;;;;;;3.59;68.53;101722.63;5119255;28;20516;-76
2021/01/14 11:02:48;;;;;;;10.53;8.47;;;;;;;4.05;66.67;101719.91;5119802;28;20496;-77
2021/01/14 11:05:14;;;;;;;12.40;9.47;;;;;;;4.26;66.58;101719.22;5118736;28;20567;-75
2021/01/14 11:07:40;;;;;;;11.90;8.50;;;;;;;4.38;66.02;101719.88;5119280;28;20171;-74
2021/01/14 11:10:07;;;;;;;14.70;8.63;;;;;;;4.02;67.49;101727.50;5119367;28;20397;-72
2021/01/14 11:12:32;;;;;;;9.50;7.80;;;;;;;4.11;67.44;101729.66;5119245;28;20494;-72
2021/01/14 11:14:58;;;;;;;11.20;8.73;;;;;;;3.81;67.91;101729.81;5118942;28;20495;-74
2021/01/14 11:17:24;;;;;;;13.50;9.47;;;;;;;4.32;66.80;101722.13;5118533;28;20308;-73
2021/01/14 11:19:50;;;;;;;13.77;9.40;;;;;;;4.44;66.16;101729.63;5118675;28;20436;-73
2021/01/14 11:22:16;;;;;;;13.97;9.17;;;;;;;4.15;67.44;101731.59;5118047;28;20414;-74
2021/01/14 11:24:41;;;;;;;11.83;9.43;;;;;;;4.35;66.39;101727.44;5118693;28;20572;-73
2021/01/14 11:27:06;;;;;;;10.23;8.63;;;;;;;3.88;68.68;101736.19;5118492;28;20190;-73
2021/01/14 11:29:33;;;;;;;11.60;9.93;;;;;;;4.17;66.96;101732.56;5118737;28;20182;-70
2021/01/14 11:31:59;;;;;;;11.70;8.80;;;;;;;4.28;66.62;101730.53;5118418;28;20168;-74
2021/01/14 11:34:25;;;;;;;11.00;8.63;;;;;;;4.66;65.95;101728.13;5118314;28;20464;-73
2021/01/14 11:36:50;;;;;;;14.07;9.47;;;;;;;4.77;64.75;101732.13;5118954;28;20432;-72
2021/01/14 11:39:15;;;;;;;11.83;9.63;;;;;;;4.16;65.97;101742.81;5118310;28;20159;-72